NOZ29W EPKK-ENBR
Flight info
| Callsign | NOZ29W |
|---|---|
| Flight time | 2h 1m |
| Altitude | 36000 |
| Route | LUMVE L619 NUDRO T710 VAGON DCT KELOD DCT BINKA DCT SONAL DCT NERDO DCT PESUR |
| Aircraft | B738/M-SDE2E3FGHIRWXY/LB1 |
Departure
| Time | 2026-05-05 16:35 |
|---|---|
| Airport | Kraków John Paul II International Airport (EPKK) |
Arrival
| Time | 2026-05-05 18:37 |
|---|---|
| Airport | Bergen Airport, Flesland (ENBR) |
| Time | Latitude | Longitude | Altitude | Speed | Heading |
|---|---|---|---|---|---|
| 2026-05-05 15:48 | 50.07454 | 19.79854 | 799 ft | 0 kts | 258° |
| 2026-05-05 15:52 | 50.07447 | 19.79690 | 799 ft | 0 kts | 258° |
| 2026-05-05 16:25 | 50.07453 | 19.79729 | 799 ft | 4 kts | 267° |
| 2026-05-05 16:25 | 50.07447 | 19.79761 | 799 ft | 4 kts | 330° |
| 2026-05-05 16:26 | 50.07422 | 19.79774 | 799 ft | 0 kts | 348° |
| 2026-05-05 16:29 | 50.07423 | 19.79774 | 799 ft | 1 kts | 348° |
| 2026-05-05 16:29 | 50.07466 | 19.79760 | 799 ft | 8 kts | 348° |
| 2026-05-05 16:29 | 50.07521 | 19.79741 | 799 ft | 9 kts | 347° |
| 2026-05-05 16:30 | 50.07590 | 19.79718 | 799 ft | 12 kts | 347° |
| 2026-05-05 16:30 | 50.07664 | 19.79700 | 799 ft | 10 kts | 11° |
| 2026-05-05 16:30 | 50.07702 | 19.79786 | 799 ft | 10 kts | 77° |
| 2026-05-05 16:30 | 50.07719 | 19.79918 | 799 ft | 14 kts | 78° |
| 2026-05-05 16:31 | 50.07740 | 19.80068 | 799 ft | 14 kts | 77° |
| 2026-05-05 16:31 | 50.07760 | 19.80211 | 799 ft | 13 kts | 78° |
| 2026-05-05 16:31 | 50.07792 | 19.80334 | 799 ft | 8 kts | 34° |
| 2026-05-05 16:31 | 50.07830 | 19.80340 | 799 ft | 0 kts | 351° |
| 2026-05-05 16:32 | 50.07845 | 19.80336 | 799 ft | 8 kts | 349° |
| 2026-05-05 16:32 | 50.07914 | 19.80313 | 799 ft | 13 kts | 347° |
| 2026-05-05 16:33 | 50.07998 | 19.80267 | 799 ft | 13 kts | 316° |
| 2026-05-05 16:33 | 50.08009 | 19.80180 | 799 ft | 0 kts | 260° |
| 2026-05-05 16:34 | 50.07993 | 19.80064 | 800 ft | 40 kts | 257° |
| 2026-05-05 16:34 | 50.07881 | 19.79265 | 799 ft | 109 kts | 258° |
| 2026-05-05 16:34 | 50.07676 | 19.77813 | 820 ft | 163 kts | 256° |
| 2026-05-05 16:35 | 50.07470 | 19.76039 | 1375 ft | 174 kts | 262° |
| 2026-05-05 16:35 | 50.07351 | 19.74080 | 1983 ft | 189 kts | 257° |
| 2026-05-05 16:35 | 50.07015 | 19.72074 | 2713 ft | 198 kts | 250° |
| 2026-05-05 16:35 | 50.06623 | 19.69877 | 2934 ft | 223 kts | 253° |
| 2026-05-05 16:36 | 50.06260 | 19.67481 | 3477 ft | 232 kts | 252° |
| 2026-05-05 16:36 | 50.05878 | 19.64907 | 3801 ft | 255 kts | 254° |
| 2026-05-05 16:36 | 50.05504 | 19.62168 | 4617 ft | 260 kts | 253° |
| 2026-05-05 16:36 | 50.05105 | 19.59419 | 5603 ft | 260 kts | 254° |
| 2026-05-05 16:37 | 50.04709 | 19.56652 | 6450 ft | 264 kts | 255° |
| 2026-05-05 16:37 | 50.04315 | 19.53844 | 7286 ft | 268 kts | 255° |
| 2026-05-05 16:37 | 50.03907 | 19.50988 | 8027 ft | 273 kts | 255° |
| 2026-05-05 16:37 | 50.03495 | 19.48129 | 8794 ft | 277 kts | 255° |
| 2026-05-05 16:38 | 50.03074 | 19.45174 | 9561 ft | 282 kts | 255° |
| 2026-05-05 16:38 | 50.02740 | 19.42150 | 10257 ft | 292 kts | 267° |
| 2026-05-05 16:38 | 50.03189 | 19.38934 | 10473 ft | 320 kts | 289° |
| 2026-05-05 16:38 | 50.04091 | 19.35631 | 10736 ft | 341 kts | 290° |
| 2026-05-05 16:39 | 50.05059 | 19.32212 | 11324 ft | 348 kts | 291° |
| 2026-05-05 16:39 | 50.06047 | 19.28753 | 11964 ft | 355 kts | 290° |
| 2026-05-05 16:39 | 50.07048 | 19.25216 | 12330 ft | 367 kts | 290° |
| 2026-05-05 16:39 | 50.08081 | 19.21541 | 12864 ft | 374 kts | 290° |
| 2026-05-05 16:40 | 50.09121 | 19.17811 | 13525 ft | 377 kts | 290° |
| 2026-05-05 16:40 | 50.10169 | 19.14042 | 14182 ft | 381 kts | 290° |
| 2026-05-05 16:40 | 50.11220 | 19.10237 | 14799 ft | 384 kts | 290° |
| 2026-05-05 16:40 | 50.12278 | 19.06392 | 15387 ft | 388 kts | 290° |
| 2026-05-05 16:41 | 50.13345 | 19.02509 | 15987 ft | 392 kts | 290° |
| 2026-05-05 16:41 | 50.14421 | 18.98585 | 16567 ft | 395 kts | 290° |
| 2026-05-05 16:41 | 50.15507 | 18.94618 | 17106 ft | 399 kts | 290° |
| 2026-05-05 16:41 | 50.16600 | 18.90626 | 17645 ft | 403 kts | 290° |
| 2026-05-05 16:42 | 50.17689 | 18.86636 | 18178 ft | 406 kts | 290° |
| 2026-05-05 16:42 | 50.18796 | 18.82569 | 18685 ft | 410 kts | 290° |
| 2026-05-05 16:42 | 50.19915 | 18.78457 | 19212 ft | 413 kts | 290° |
| 2026-05-05 16:42 | 50.21041 | 18.74309 | 19729 ft | 416 kts | 290° |
| 2026-05-05 16:43 | 50.22228 | 18.70172 | 20215 ft | 421 kts | 297° |
| 2026-05-05 16:43 | 50.24089 | 18.66619 | 20651 ft | 430 kts | 317° |
| 2026-05-05 16:43 | 50.26622 | 18.64092 | 21152 ft | 436 kts | 333° |
| 2026-05-05 16:43 | 50.29424 | 18.62238 | 21658 ft | 438 kts | 335° |
| 2026-05-05 16:44 | 50.32222 | 18.60461 | 22069 ft | 441 kts | 336° |
| 2026-05-05 16:44 | 50.35072 | 18.58648 | 22499 ft | 443 kts | 336° |
| 2026-05-05 16:44 | 50.37927 | 18.56804 | 22936 ft | 445 kts | 335° |
| 2026-05-05 16:44 | 50.40783 | 18.54931 | 23353 ft | 447 kts | 335° |
| 2026-05-05 16:45 | 50.43656 | 18.53026 | 23762 ft | 448 kts | 335° |
| 2026-05-05 16:45 | 50.46527 | 18.51111 | 24154 ft | 450 kts | 335° |
| 2026-05-05 16:45 | 50.49415 | 18.49180 | 24531 ft | 452 kts | 335° |
| 2026-05-05 16:45 | 50.52319 | 18.47237 | 24883 ft | 454 kts | 335° |
| 2026-05-05 16:46 | 50.55233 | 18.45287 | 25218 ft | 457 kts | 335° |
| 2026-05-05 16:46 | 50.58069 | 18.43177 | 25518 ft | 457 kts | 326° |
| 2026-05-05 16:46 | 50.60596 | 18.40161 | 25855 ft | 456 kts | 318° |
| 2026-05-05 16:46 | 50.63005 | 18.36910 | 26200 ft | 457 kts | 317° |
| 2026-05-05 16:47 | 50.65426 | 18.33649 | 26483 ft | 459 kts | 318° |
| 2026-05-05 16:47 | 50.67884 | 18.30415 | 26724 ft | 462 kts | 319° |
| 2026-05-05 16:47 | 50.70379 | 18.27198 | 26984 ft | 464 kts | 319° |
| 2026-05-05 16:47 | 50.72883 | 18.23978 | 27266 ft | 465 kts | 318° |
| 2026-05-05 16:48 | 50.75165 | 18.20376 | 27513 ft | 464 kts | 307° |
| 2026-05-05 16:48 | 50.77130 | 18.16351 | 27831 ft | 464 kts | 304° |
| 2026-05-05 16:48 | 50.79027 | 18.12228 | 28202 ft | 462 kts | 304° |
| 2026-05-05 16:48 | 50.80879 | 18.08168 | 28613 ft | 461 kts | 304° |
| 2026-05-05 16:49 | 50.82760 | 18.04088 | 29044 ft | 458 kts | 304° |
| 2026-05-05 16:49 | 50.84649 | 18.00048 | 29411 ft | 457 kts | 305° |
| 2026-05-05 16:49 | 50.86555 | 17.96023 | 29710 ft | 457 kts | 305° |
| 2026-05-05 16:49 | 50.88464 | 17.92010 | 30073 ft | 455 kts | 305° |
| 2026-05-05 16:50 | 50.90365 | 17.88023 | 30472 ft | 452 kts | 305° |
| 2026-05-05 16:50 | 50.92257 | 17.84053 | 30844 ft | 451 kts | 305° |
| 2026-05-05 16:50 | 50.94140 | 17.80098 | 31183 ft | 449 kts | 305° |
| 2026-05-05 16:50 | 50.95996 | 17.76195 | 31492 ft | 448 kts | 304° |
| 2026-05-05 16:51 | 50.97867 | 17.72253 | 31850 ft | 447 kts | 304° |
| 2026-05-05 16:51 | 50.99729 | 17.68321 | 32198 ft | 444 kts | 304° |
| 2026-05-05 16:51 | 51.01581 | 17.64400 | 32518 ft | 443 kts | 304° |
| 2026-05-05 16:51 | 51.03431 | 17.60485 | 32775 ft | 443 kts | 304° |
| 2026-05-05 16:52 | 51.05273 | 17.56574 | 33074 ft | 441 kts | 304° |
| 2026-05-05 16:52 | 51.07103 | 17.52679 | 33399 ft | 439 kts | 304° |
| 2026-05-05 16:52 | 51.08930 | 17.48788 | 33707 ft | 438 kts | 304° |
| 2026-05-05 16:52 | 51.10746 | 17.44913 | 33963 ft | 437 kts | 304° |
| 2026-05-05 16:53 | 51.12538 | 17.41088 | 34221 ft | 436 kts | 304° |
| 2026-05-05 16:53 | 51.14350 | 17.37215 | 34474 ft | 436 kts | 304° |
| 2026-05-05 16:53 | 51.16166 | 17.33366 | 34716 ft | 435 kts | 306° |
| 2026-05-05 16:53 | 51.18238 | 17.29820 | 34916 ft | 439 kts | 314° |
| 2026-05-05 16:54 | 51.20492 | 17.26537 | 35135 ft | 439 kts | 315° |
| 2026-05-05 16:54 | 51.22757 | 17.23275 | 35339 ft | 439 kts | 314° |
| 2026-05-05 16:54 | 51.25011 | 17.19996 | 35536 ft | 439 kts | 314° |
| 2026-05-05 16:54 | 51.27250 | 17.16694 | 35738 ft | 438 kts | 314° |
| 2026-05-05 16:55 | 51.31729 | 17.10100 | 35756 ft | 441 kts | 316° |
| 2026-05-05 16:55 | 51.36453 | 17.03877 | 35751 ft | 439 kts | 318° |
| 2026-05-05 16:56 | 51.41218 | 16.97809 | 35758 ft | 436 kts | 318° |
| 2026-05-05 16:56 | 51.45932 | 16.91738 | 35759 ft | 433 kts | 317° |
| 2026-05-05 16:57 | 51.50602 | 16.85653 | 35759 ft | 432 kts | 317° |
| 2026-05-05 16:57 | 51.55230 | 16.79585 | 35774 ft | 432 kts | 317° |
| 2026-05-05 16:58 | 51.59882 | 16.73470 | 35786 ft | 433 kts | 317° |
| 2026-05-05 16:58 | 51.64556 | 16.67311 | 35787 ft | 435 kts | 317° |
| 2026-05-05 16:59 | 51.69246 | 16.61115 | 35790 ft | 437 kts | 317° |
| 2026-05-05 16:59 | 51.73921 | 16.54919 | 35799 ft | 439 kts | 317° |
| 2026-05-05 17:00 | 51.78643 | 16.48648 | 35803 ft | 440 kts | 316° |
| 2026-05-05 17:00 | 51.83364 | 16.42357 | 35806 ft | 440 kts | 316° |
| 2026-05-05 17:01 | 51.88088 | 16.36049 | 35812 ft | 440 kts | 316° |
| 2026-05-05 17:01 | 51.92768 | 16.29783 | 35816 ft | 439 kts | 316° |
| 2026-05-05 17:02 | 51.97468 | 16.23467 | 35818 ft | 438 kts | 316° |
| 2026-05-05 17:02 | 52.02145 | 16.17166 | 35822 ft | 437 kts | 316° |
| 2026-05-05 17:03 | 52.06813 | 16.10861 | 35824 ft | 436 kts | 316° |
| 2026-05-05 17:03 | 52.11432 | 16.04603 | 35824 ft | 434 kts | 316° |
| 2026-05-05 17:04 | 52.16066 | 15.98306 | 35833 ft | 434 kts | 316° |
| 2026-05-05 17:04 | 52.20690 | 15.92006 | 35833 ft | 433 kts | 316° |
| 2026-05-05 17:05 | 52.25460 | 15.85971 | 35833 ft | 436 kts | 322° |
| 2026-05-05 17:05 | 52.30633 | 15.80750 | 35828 ft | 438 kts | 324° |
| 2026-05-05 17:06 | 52.35816 | 15.75635 | 35839 ft | 438 kts | 324° |
| 2026-05-05 17:06 | 52.41019 | 15.70410 | 35833 ft | 439 kts | 323° |
| 2026-05-05 17:07 | 52.46208 | 15.65132 | 35835 ft | 439 kts | 323° |
| 2026-05-05 17:07 | 52.51391 | 15.59821 | 35835 ft | 440 kts | 323° |
| 2026-05-05 17:08 | 52.56587 | 15.54480 | 35838 ft | 441 kts | 323° |
| 2026-05-05 17:08 | 52.61749 | 15.49162 | 35843 ft | 441 kts | 323° |
| 2026-05-05 17:09 | 52.66950 | 15.43789 | 35840 ft | 441 kts | 322° |
| 2026-05-05 17:09 | 52.72151 | 15.38401 | 35839 ft | 442 kts | 322° |
| 2026-05-05 17:10 | 52.77359 | 15.32992 | 35854 ft | 442 kts | 322° |
| 2026-05-05 17:10 | 52.82565 | 15.27568 | 35845 ft | 443 kts | 322° |
| 2026-05-05 17:11 | 52.87740 | 15.22163 | 35864 ft | 443 kts | 322° |
| 2026-05-05 17:11 | 52.92945 | 15.16709 | 35868 ft | 443 kts | 322° |
| 2026-05-05 17:12 | 52.98145 | 15.11244 | 35851 ft | 442 kts | 322° |
| 2026-05-05 17:12 | 53.03337 | 15.05769 | 35869 ft | 441 kts | 322° |
| 2026-05-05 17:13 | 53.08488 | 15.00328 | 35872 ft | 441 kts | 322° |
| 2026-05-05 17:13 | 53.13667 | 14.94840 | 35867 ft | 441 kts | 321° |
| 2026-05-05 17:14 | 53.18839 | 14.89342 | 35869 ft | 441 kts | 321° |
| 2026-05-05 17:14 | 53.24004 | 14.83836 | 35888 ft | 441 kts | 321° |
| 2026-05-05 17:15 | 53.29169 | 14.78313 | 35875 ft | 441 kts | 321° |
| 2026-05-05 17:15 | 53.34295 | 14.72816 | 35884 ft | 440 kts | 321° |
| 2026-05-05 17:16 | 53.39451 | 14.67271 | 35891 ft | 440 kts | 321° |
| 2026-05-05 17:16 | 53.44596 | 14.61720 | 35887 ft | 440 kts | 321° |
| 2026-05-05 17:17 | 53.49736 | 14.56162 | 35892 ft | 440 kts | 321° |
| 2026-05-05 17:17 | 53.54876 | 14.50586 | 35890 ft | 440 kts | 321° |
| 2026-05-05 17:18 | 53.59973 | 14.45038 | 35886 ft | 439 kts | 321° |
| 2026-05-05 17:18 | 53.65102 | 14.39442 | 35892 ft | 439 kts | 320° |
| 2026-05-05 17:19 | 53.70227 | 14.33832 | 35902 ft | 439 kts | 320° |
| 2026-05-05 17:19 | 53.75340 | 14.28220 | 35907 ft | 438 kts | 320° |
| 2026-05-05 17:20 | 53.80258 | 14.22218 | 35910 ft | 434 kts | 316° |
| 2026-05-05 17:20 | 53.84990 | 14.15987 | 35906 ft | 434 kts | 315° |
| 2026-05-05 17:21 | 53.89755 | 14.09702 | 35918 ft | 434 kts | 316° |
| 2026-05-05 17:22 | 53.96917 | 14.00327 | 35913 ft | 434 kts | 316° |
| 2026-05-05 17:22 | 54.01698 | 13.94073 | 35907 ft | 434 kts | 316° |
| 2026-05-05 17:23 | 54.06453 | 13.87838 | 35916 ft | 434 kts | 316° |
| 2026-05-05 17:23 | 54.11230 | 13.81553 | 35914 ft | 434 kts | 316° |
| 2026-05-05 17:24 | 54.16002 | 13.75256 | 35912 ft | 434 kts | 316° |
| 2026-05-05 17:24 | 54.20773 | 13.68940 | 35917 ft | 434 kts | 316° |
| 2026-05-05 17:25 | 54.25547 | 13.62598 | 35923 ft | 434 kts | 316° |
| 2026-05-05 17:25 | 54.30314 | 13.56251 | 35914 ft | 434 kts | 316° |
| 2026-05-05 17:26 | 54.35040 | 13.49936 | 35915 ft | 434 kts | 316° |
| 2026-05-05 17:26 | 54.39799 | 13.43559 | 35920 ft | 434 kts | 316° |
| 2026-05-05 17:27 | 54.44550 | 13.37175 | 35913 ft | 434 kts | 316° |
| 2026-05-05 17:27 | 54.49303 | 13.30769 | 35921 ft | 434 kts | 316° |
| 2026-05-05 17:28 | 54.53256 | 13.25425 | 35920 ft | 434 kts | 316° |
| 2026-05-05 17:28 | 54.58770 | 13.17949 | 35914 ft | 434 kts | 316° |
| 2026-05-05 17:29 | 54.63512 | 13.11498 | 35917 ft | 434 kts | 316° |
| 2026-05-05 17:29 | 54.68247 | 13.05036 | 35918 ft | 434 kts | 316° |
| 2026-05-05 17:30 | 54.72179 | 12.99652 | 35917 ft | 434 kts | 316° |
| 2026-05-05 17:30 | 54.77678 | 12.92106 | 35916 ft | 434 kts | 316° |
| 2026-05-05 17:31 | 54.82408 | 12.85592 | 35915 ft | 434 kts | 316° |
| 2026-05-05 17:31 | 54.86334 | 12.80171 | 35918 ft | 434 kts | 316° |
| 2026-05-05 17:32 | 54.91269 | 12.74077 | 35929 ft | 438 kts | 322° |
| 2026-05-05 17:32 | 54.96501 | 12.68533 | 35924 ft | 440 kts | 323° |
| 2026-05-05 17:33 | 55.01734 | 12.63024 | 35935 ft | 439 kts | 323° |
| 2026-05-05 17:33 | 55.06908 | 12.57483 | 35934 ft | 439 kts | 322° |
| 2026-05-05 17:34 | 55.12103 | 12.51847 | 35936 ft | 439 kts | 322° |
| 2026-05-05 17:34 | 55.17288 | 12.46189 | 35935 ft | 440 kts | 322° |
| 2026-05-05 17:35 | 55.22475 | 12.40513 | 35938 ft | 439 kts | 322° |
| 2026-05-05 17:35 | 55.27622 | 12.34862 | 35934 ft | 440 kts | 322° |
| 2026-05-05 17:36 | 55.32805 | 12.29153 | 35935 ft | 440 kts | 322° |
| 2026-05-05 17:36 | 55.37987 | 12.23430 | 35936 ft | 440 kts | 322° |
| 2026-05-05 17:37 | 55.43162 | 12.17698 | 35933 ft | 440 kts | 322° |
| 2026-05-05 17:37 | 55.48342 | 12.11942 | 35937 ft | 440 kts | 322° |
| 2026-05-05 17:38 | 55.53518 | 12.06171 | 35934 ft | 440 kts | 322° |
| 2026-05-05 17:38 | 55.58658 | 12.00421 | 35934 ft | 440 kts | 322° |
| 2026-05-05 17:39 | 55.63826 | 11.94620 | 35938 ft | 440 kts | 322° |
| 2026-05-05 17:39 | 55.68994 | 11.88803 | 35947 ft | 440 kts | 322° |
| 2026-05-05 17:40 | 55.74157 | 11.82974 | 35942 ft | 440 kts | 322° |
| 2026-05-05 17:40 | 55.79286 | 11.77171 | 35944 ft | 440 kts | 322° |
| 2026-05-05 17:41 | 55.84442 | 11.71316 | 35945 ft | 440 kts | 322° |
| 2026-05-05 17:41 | 55.89596 | 11.65440 | 35944 ft | 440 kts | 322° |
| 2026-05-05 17:42 | 55.94752 | 11.59543 | 35947 ft | 440 kts | 322° |
| 2026-05-05 17:42 | 55.99870 | 11.53669 | 35942 ft | 440 kts | 322° |
| 2026-05-05 17:43 | 56.05019 | 11.47743 | 35947 ft | 440 kts | 321° |
| 2026-05-05 17:43 | 56.10166 | 11.41802 | 35953 ft | 440 kts | 321° |
| 2026-05-05 17:44 | 56.15306 | 11.35849 | 35953 ft | 440 kts | 321° |
| 2026-05-05 17:44 | 56.20412 | 11.29915 | 35954 ft | 440 kts | 321° |
| 2026-05-05 17:45 | 56.25543 | 11.23935 | 35954 ft | 439 kts | 321° |
| 2026-05-05 17:45 | 56.30666 | 11.17942 | 35960 ft | 439 kts | 321° |
| 2026-05-05 17:46 | 56.35787 | 11.11933 | 35965 ft | 439 kts | 321° |
| 2026-05-05 17:46 | 56.40859 | 11.05960 | 35961 ft | 438 kts | 321° |
| 2026-05-05 17:47 | 56.45963 | 10.99934 | 35962 ft | 438 kts | 321° |
| 2026-05-05 17:47 | 56.51063 | 10.93893 | 35963 ft | 438 kts | 321° |
| 2026-05-05 17:48 | 56.56158 | 10.87836 | 35964 ft | 438 kts | 321° |
| 2026-05-05 17:48 | 56.61248 | 10.81769 | 35961 ft | 437 kts | 321° |
| 2026-05-05 17:49 | 56.66292 | 10.75733 | 35964 ft | 437 kts | 320° |
| 2026-05-05 17:49 | 56.71360 | 10.69647 | 35961 ft | 437 kts | 321° |
| 2026-05-05 17:50 | 56.76425 | 10.63546 | 35963 ft | 436 kts | 320° |
| 2026-05-05 17:50 | 56.81486 | 10.57430 | 35962 ft | 436 kts | 320° |
| 2026-05-05 17:51 | 56.86508 | 10.51342 | 35965 ft | 436 kts | 320° |
| 2026-05-05 17:51 | 56.91565 | 10.45191 | 35964 ft | 436 kts | 320° |
| 2026-05-05 17:52 | 56.96619 | 10.39024 | 35961 ft | 436 kts | 320° |
| 2026-05-05 17:52 | 57.01669 | 10.32841 | 35964 ft | 436 kts | 320° |
| 2026-05-05 17:53 | 57.06708 | 10.26651 | 35962 ft | 436 kts | 320° |
| 2026-05-05 17:53 | 57.11714 | 10.20478 | 35964 ft | 436 kts | 320° |
| 2026-05-05 17:54 | 57.16746 | 10.14256 | 35963 ft | 436 kts | 320° |
| 2026-05-05 17:54 | 57.21768 | 10.08025 | 35964 ft | 435 kts | 319° |
| 2026-05-05 17:55 | 57.26794 | 10.01768 | 35961 ft | 435 kts | 319° |
| 2026-05-05 17:55 | 57.31779 | 9.95543 | 35961 ft | 435 kts | 319° |
| 2026-05-05 17:56 | 57.36783 | 9.89271 | 35964 ft | 434 kts | 319° |
| 2026-05-05 17:56 | 57.41781 | 9.82981 | 35966 ft | 434 kts | 319° |
| 2026-05-05 17:57 | 57.46774 | 9.76685 | 35963 ft | 434 kts | 319° |
| 2026-05-05 17:57 | 57.51723 | 9.70425 | 35961 ft | 433 kts | 319° |
| 2026-05-05 17:58 | 57.56701 | 9.64101 | 35962 ft | 433 kts | 319° |
| 2026-05-05 17:58 | 57.61668 | 9.57767 | 35964 ft | 433 kts | 319° |
| 2026-05-05 17:59 | 57.66634 | 9.51416 | 35958 ft | 433 kts | 319° |
| 2026-05-05 17:59 | 57.71592 | 9.45052 | 35953 ft | 433 kts | 319° |
| 2026-05-05 18:00 | 57.76518 | 9.38711 | 35955 ft | 432 kts | 319° |
| 2026-05-05 18:00 | 57.81471 | 9.32312 | 35955 ft | 432 kts | 319° |
| 2026-05-05 18:01 | 57.86422 | 9.25896 | 35953 ft | 432 kts | 319° |
| 2026-05-05 18:01 | 57.91511 | 9.19762 | 35949 ft | 437 kts | 323° |
| 2026-05-05 18:02 | 57.96859 | 9.14237 | 35944 ft | 438 kts | 324° |
| 2026-05-05 18:02 | 58.02221 | 9.08766 | 35946 ft | 438 kts | 324° |
| 2026-05-05 18:03 | 58.07521 | 9.03279 | 35946 ft | 437 kts | 324° |
| 2026-05-05 18:03 | 58.12834 | 8.97711 | 35943 ft | 436 kts | 323° |
| 2026-05-05 18:04 | 58.18126 | 8.92130 | 35944 ft | 435 kts | 323° |
| 2026-05-05 18:04 | 58.23406 | 8.86540 | 35948 ft | 433 kts | 323° |
| 2026-05-05 18:05 | 58.28589 | 8.80785 | 35935 ft | 426 kts | 316° |
| 2026-05-05 18:05 | 58.32587 | 8.72878 | 35946 ft | 410 kts | 300° |
| 2026-05-05 18:06 | 58.35402 | 8.63657 | 35943 ft | 405 kts | 294° |
| 2026-05-05 18:06 | 58.38099 | 8.54241 | 35949 ft | 405 kts | 294° |
| 2026-05-05 18:07 | 58.40813 | 8.44799 | 35937 ft | 407 kts | 294° |
| 2026-05-05 18:07 | 58.43520 | 8.35393 | 35872 ft | 403 kts | 294° |
| 2026-05-05 18:07 | 58.44861 | 8.30728 | 35584 ft | 398 kts | 294° |
| 2026-05-05 18:08 | 58.46184 | 8.26122 | 35340 ft | 394 kts | 294° |
| 2026-05-05 18:08 | 58.47480 | 8.21591 | 35103 ft | 395 kts | 293° |
| 2026-05-05 18:08 | 58.48793 | 8.16986 | 34865 ft | 395 kts | 293° |
| 2026-05-05 18:08 | 58.50109 | 8.12365 | 34621 ft | 395 kts | 293° |
| 2026-05-05 18:09 | 58.51421 | 8.07751 | 34377 ft | 395 kts | 293° |
| 2026-05-05 18:09 | 58.52732 | 8.03129 | 34128 ft | 395 kts | 293° |
| 2026-05-05 18:09 | 58.54039 | 7.98516 | 33883 ft | 394 kts | 293° |
| 2026-05-05 18:09 | 58.55339 | 7.93919 | 33630 ft | 392 kts | 293° |
| 2026-05-05 18:10 | 58.56634 | 7.89328 | 33374 ft | 391 kts | 293° |
| 2026-05-05 18:10 | 58.57921 | 7.84758 | 33131 ft | 390 kts | 293° |
| 2026-05-05 18:10 | 58.59188 | 7.80250 | 32886 ft | 389 kts | 293° |
| 2026-05-05 18:10 | 58.60585 | 7.75729 | 32609 ft | 392 kts | 300° |
| 2026-05-05 18:11 | 58.62327 | 7.71660 | 32383 ft | 397 kts | 307° |
| 2026-05-05 18:11 | 58.64334 | 7.68075 | 32145 ft | 401 kts | 311° |
| 2026-05-05 18:11 | 58.66423 | 7.64532 | 31890 ft | 401 kts | 311° |
| 2026-05-05 18:11 | 58.68520 | 7.60972 | 31640 ft | 403 kts | 310° |
| 2026-05-05 18:12 | 58.70617 | 7.57395 | 31406 ft | 404 kts | 310° |
| 2026-05-05 18:12 | 58.72722 | 7.53787 | 31145 ft | 405 kts | 310° |
| 2026-05-05 18:12 | 58.74822 | 7.50170 | 30897 ft | 405 kts | 310° |
| 2026-05-05 18:12 | 58.76914 | 7.46557 | 30656 ft | 404 kts | 310° |
| 2026-05-05 18:13 | 58.79008 | 7.42930 | 30402 ft | 405 kts | 310° |
| 2026-05-05 18:13 | 58.81099 | 7.39296 | 30163 ft | 405 kts | 310° |
| 2026-05-05 18:13 | 58.83191 | 7.35654 | 29994 ft | 404 kts | 310° |
| 2026-05-05 18:14 | 58.87309 | 7.28475 | 29680 ft | 394 kts | 309° |
| 2026-05-05 18:14 | 58.89339 | 7.24933 | 29019 ft | 393 kts | 309° |
| 2026-05-05 18:14 | 58.91366 | 7.21375 | 28129 ft | 396 kts | 310° |
| 2026-05-05 18:14 | 58.93428 | 7.17742 | 27075 ft | 403 kts | 310° |
| 2026-05-05 18:15 | 58.95515 | 7.14053 | 25982 ft | 410 kts | 310° |
| 2026-05-05 18:15 | 58.97630 | 7.10318 | 25003 ft | 412 kts | 310° |
| 2026-05-05 18:15 | 58.99740 | 7.06601 | 24348 ft | 406 kts | 310° |
| 2026-05-05 18:15 | 59.01813 | 7.02952 | 23761 ft | 399 kts | 311° |
| 2026-05-05 18:16 | 59.03854 | 6.99350 | 23130 ft | 394 kts | 311° |
| 2026-05-05 18:16 | 59.05871 | 6.95775 | 22466 ft | 390 kts | 311° |
| 2026-05-05 18:16 | 59.07839 | 6.92279 | 21791 ft | 387 kts | 311° |
| 2026-05-05 18:16 | 59.09819 | 6.88754 | 21078 ft | 384 kts | 311° |
| 2026-05-05 18:17 | 59.11781 | 6.85256 | 20418 ft | 381 kts | 311° |
| 2026-05-05 18:17 | 59.13721 | 6.81789 | 19738 ft | 377 kts | 312° |
| 2026-05-05 18:17 | 59.15647 | 6.78343 | 19039 ft | 375 kts | 312° |
| 2026-05-05 18:17 | 59.17557 | 6.74922 | 18431 ft | 371 kts | 312° |
| 2026-05-05 18:18 | 59.19459 | 6.71505 | 18205 ft | 375 kts | 313° |
| 2026-05-05 18:18 | 59.21378 | 6.68052 | 18074 ft | 374 kts | 313° |
| 2026-05-05 18:18 | 59.23282 | 6.64627 | 18015 ft | 370 kts | 313° |
| 2026-05-05 18:18 | 59.25171 | 6.61220 | 18005 ft | 371 kts | 313° |
| 2026-05-05 18:19 | 59.27043 | 6.57839 | 18004 ft | 371 kts | 313° |
| 2026-05-05 18:19 | 59.28934 | 6.54419 | 18008 ft | 371 kts | 313° |
| 2026-05-05 18:19 | 59.30823 | 6.50996 | 18002 ft | 370 kts | 313° |
| 2026-05-05 18:19 | 59.32711 | 6.47572 | 18014 ft | 370 kts | 313° |
| 2026-05-05 18:20 | 59.34596 | 6.44145 | 18013 ft | 370 kts | 313° |
| 2026-05-05 18:20 | 59.36471 | 6.40733 | 17955 ft | 364 kts | 313° |
| 2026-05-05 18:20 | 59.38288 | 6.37432 | 17845 ft | 346 kts | 313° |
| 2026-05-05 18:20 | 59.40017 | 6.34287 | 17711 ft | 333 kts | 313° |
| 2026-05-05 18:21 | 59.41697 | 6.31219 | 17317 ft | 328 kts | 312° |
| 2026-05-05 18:21 | 59.43358 | 6.28170 | 16825 ft | 327 kts | 313° |
| 2026-05-05 18:21 | 59.44994 | 6.25165 | 16345 ft | 325 kts | 313° |
| 2026-05-05 18:21 | 59.46642 | 6.22133 | 15849 ft | 324 kts | 313° |
| 2026-05-05 18:22 | 59.48283 | 6.19113 | 15359 ft | 323 kts | 313° |
| 2026-05-05 18:22 | 59.49920 | 6.16098 | 14893 ft | 321 kts | 314° |
| 2026-05-05 18:22 | 59.51547 | 6.13100 | 14411 ft | 319 kts | 314° |
| 2026-05-05 18:22 | 59.53165 | 6.10112 | 13915 ft | 319 kts | 314° |
| 2026-05-05 18:23 | 59.54774 | 6.07136 | 13458 ft | 317 kts | 314° |
| 2026-05-05 18:23 | 59.56378 | 6.04165 | 13007 ft | 315 kts | 314° |
| 2026-05-05 18:23 | 59.57974 | 6.01206 | 12542 ft | 314 kts | 315° |
| 2026-05-05 18:23 | 59.59545 | 5.98289 | 12075 ft | 314 kts | 315° |
| 2026-05-05 18:24 | 59.61129 | 5.95347 | 11638 ft | 312 kts | 315° |
| 2026-05-05 18:24 | 59.62706 | 5.92413 | 11158 ft | 312 kts | 315° |
| 2026-05-05 18:24 | 59.64283 | 5.89471 | 10660 ft | 312 kts | 315° |
| 2026-05-05 18:24 | 59.65886 | 5.86569 | 10197 ft | 313 kts | 321° |
| 2026-05-05 18:25 | 59.67841 | 5.84618 | 10093 ft | 321 kts | 342° |
| 2026-05-05 18:25 | 59.69329 | 5.84077 | 10067 ft | 322 kts | 352° |
| 2026-05-05 18:25 | 59.72230 | 5.83629 | 10016 ft | 310 kts | 354° |
| 2026-05-05 18:25 | 59.74347 | 5.83341 | 10008 ft | 301 kts | 353° |
| 2026-05-05 18:26 | 59.76412 | 5.83035 | 10015 ft | 296 kts | 353° |
| 2026-05-05 18:26 | 59.78476 | 5.82705 | 10024 ft | 299 kts | 353° |
| 2026-05-05 18:26 | 59.80552 | 5.82363 | 10031 ft | 301 kts | 353° |
| 2026-05-05 18:26 | 59.82638 | 5.81989 | 10018 ft | 301 kts | 351° |
| 2026-05-05 18:27 | 59.84710 | 5.81339 | 10023 ft | 301 kts | 348° |
| 2026-05-05 18:27 | 59.86768 | 5.80577 | 10032 ft | 301 kts | 347° |
| 2026-05-05 18:27 | 59.88798 | 5.79807 | 10021 ft | 301 kts | 347° |
| 2026-05-05 18:27 | 59.90855 | 5.79034 | 10015 ft | 301 kts | 347° |
| 2026-05-05 18:28 | 59.94918 | 5.77536 | 9655 ft | 293 kts | 347° |
| 2026-05-05 18:28 | 59.96926 | 5.76804 | 9210 ft | 295 kts | 348° |
| 2026-05-05 18:28 | 59.98951 | 5.76067 | 8780 ft | 296 kts | 348° |
| 2026-05-05 18:29 | 60.00980 | 5.75331 | 8406 ft | 296 kts | 348° |
| 2026-05-05 18:29 | 60.02997 | 5.74598 | 8039 ft | 294 kts | 348° |
| 2026-05-05 18:29 | 60.04916 | 5.73285 | 7666 ft | 291 kts | 327° |
| 2026-05-05 18:29 | 60.06346 | 5.70498 | 7321 ft | 287 kts | 301° |
| 2026-05-05 18:30 | 60.07014 | 5.66775 | 6926 ft | 287 kts | 278° |
| 2026-05-05 18:30 | 60.07186 | 5.62861 | 6593 ft | 285 kts | 274° |
| 2026-05-05 18:30 | 60.07302 | 5.58913 | 6288 ft | 282 kts | 277° |
| 2026-05-05 18:30 | 60.07765 | 5.55193 | 6232 ft | 270 kts | 288° |
| 2026-05-05 18:31 | 60.08297 | 5.51667 | 6144 ft | 260 kts | 285° |
| 2026-05-05 18:31 | 60.08745 | 5.48234 | 6063 ft | 249 kts | 284° |
| 2026-05-05 18:31 | 60.09129 | 5.44942 | 5888 ft | 238 kts | 283° |
| 2026-05-05 18:31 | 60.09469 | 5.41779 | 5663 ft | 228 kts | 282° |
| 2026-05-05 18:32 | 60.09785 | 5.38710 | 5466 ft | 222 kts | 282° |
| 2026-05-05 18:32 | 60.10085 | 5.35729 | 5353 ft | 215 kts | 282° |
| 2026-05-05 18:32 | 60.10366 | 5.32918 | 5284 ft | 203 kts | 282° |
| 2026-05-05 18:32 | 60.10708 | 5.30068 | 4524 ft | 218 kts | 293° |
| 2026-05-05 18:33 | 60.11721 | 5.27817 | 3804 ft | 227 kts | 333° |
| 2026-05-05 18:33 | 60.13246 | 5.27193 | 3356 ft | 220 kts | 355° |
| 2026-05-05 18:33 | 60.14727 | 5.26778 | 3039 ft | 209 kts | 348° |
| 2026-05-05 18:33 | 60.16114 | 5.26262 | 2763 ft | 198 kts | 349° |
| 2026-05-05 18:34 | 60.17435 | 5.25810 | 2506 ft | 188 kts | 349° |
| 2026-05-05 18:34 | 60.18709 | 5.25388 | 2268 ft | 185 kts | 349° |
| 2026-05-05 18:34 | 60.19976 | 5.24966 | 2047 ft | 185 kts | 349° |
| 2026-05-05 18:34 | 60.21237 | 5.24542 | 1778 ft | 179 kts | 348° |
| 2026-05-05 18:35 | 60.22410 | 5.24149 | 1536 ft | 162 kts | 348° |
| 2026-05-05 18:35 | 60.23440 | 5.23805 | 1338 ft | 145 kts | 347° |
| 2026-05-05 18:35 | 60.24401 | 5.23482 | 1155 ft | 137 kts | 347° |
| 2026-05-05 18:35 | 60.25348 | 5.23159 | 908 ft | 142 kts | 347° |
| 2026-05-05 18:36 | 60.26305 | 5.22843 | 624 ft | 135 kts | 348° |
| 2026-05-05 18:36 | 60.27228 | 5.22557 | 401 ft | 138 kts | 347° |
| 2026-05-05 18:36 | 60.28181 | 5.22218 | 231 ft | 140 kts | 348° |
| 2026-05-05 18:36 | 60.29098 | 5.21897 | 162 ft | 127 kts | 349° |
| 2026-05-05 18:37 | 60.29735 | 5.21667 | 152 ft | 44 kts | 351° |
| 2026-05-05 18:37 | 60.29974 | 5.21598 | 160 ft | 19 kts | 358° |
| 2026-05-05 18:37 | 60.30033 | 5.21670 | 160 ft | 9 kts | 65° |
| 2026-05-05 18:37 | 60.30047 | 5.21823 | 158 ft | 12 kts | 92° |
| 2026-05-05 18:38 | 60.30008 | 5.21913 | 156 ft | 0 kts | 161° |
| 2026-05-05 18:38 | 60.30006 | 5.21914 | 156 ft | 0 kts | 163° |
| 2026-05-05 18:39 | 60.30002 | 5.21916 | 156 ft | 2 kts | 166° |
| 2026-05-05 18:39 | 60.29983 | 5.21923 | 155 ft | 3 kts | 170° |
| 2026-05-05 18:39 | 60.29954 | 5.21932 | 154 ft | 5 kts | 171° |
| 2026-05-05 18:39 | 60.29917 | 5.21944 | 153 ft | 6 kts | 171° |
| 2026-05-05 18:40 | 60.29866 | 5.21961 | 151 ft | 9 kts | 170° |
| 2026-05-05 18:40 | 60.29794 | 5.21988 | 148 ft | 12 kts | 169° |
| 2026-05-05 18:40 | 60.29711 | 5.22017 | 147 ft | 13 kts | 172° |
| 2026-05-05 18:40 | 60.29608 | 5.22050 | 148 ft | 16 kts | 171° |
| 2026-05-05 18:41 | 60.29498 | 5.22086 | 154 ft | 16 kts | 170° |
| 2026-05-05 18:41 | 60.29394 | 5.22123 | 157 ft | 15 kts | 172° |
| 2026-05-05 18:41 | 60.29293 | 5.22154 | 161 ft | 14 kts | 171° |
| 2026-05-05 18:41 | 60.29197 | 5.22186 | 162 ft | 14 kts | 170° |
| 2026-05-05 18:42 | 60.29109 | 5.22219 | 162 ft | 10 kts | 168° |
| 2026-05-05 18:42 | 60.29077 | 5.22303 | 164 ft | 7 kts | 105° |
| 2026-05-05 18:42 | 60.29042 | 5.22375 | 166 ft | 7 kts | 135° |
| 2026-05-05 18:42 | 60.29032 | 5.22466 | 169 ft | 7 kts | 83° |
| 2026-05-05 18:43 | 60.29040 | 5.22552 | 171 ft | 3 kts | 79° |
| 2026-05-05 18:43 | 60.29036 | 5.22593 | 172 ft | 3 kts | 123° |
| 2026-05-05 18:43 | 60.29019 | 5.22618 | 172 ft | 3 kts | 152° |
| 2026-05-05 18:43 | 60.29001 | 5.22637 | 172 ft | 3 kts | 152° |
| 2026-05-05 18:44 | 60.28986 | 5.22650 | 172 ft | 0 kts | 155° |